Kalamazoo, Michigan
Current Conditions -  °F | °C
As of 9:53 PM on Friday 28 Nov 2014 (Local Time) from KAZO Reporting Station
Scattered Clouds Scattered Clouds  
Wind Chill: -6°   Ceiling: Unl
Heat Index: -2°   Visibility: 10mi
Dew Point: -7°   Wind: 9mph
Humidity: 69%   Direction: 170°S
Pressure: 30.01"   Gusts: NA
Location:  42.29°N, 85.6°W
Report Text: KAZO 290253Z 17008KT 10SM SCT110 M02/M07 A3001 RMK AO2 SLP176 T10171067 58015
Loading
Personal Weather Stations






























Interactive Weather Map New forecast layout! Learn more

10-Day Weather Forecast

Advertisements
Track Severe Weather on mobile